KBLH/BLH METAR and TAF weather

Enter ICAO airport designator
Station Type Date Time Source
KBLH METAR 2019/10/16 18:52 UTC NOAA

KBLH 161852Z AUTO 00000KT 10SM CLR 33/M01 A2992 RMK AO2 SLP125 T03281006


Station Type Date Time Source
KBLH Decoded METAR 2019/10/16 18:52 UTC NOAA

BLYTHE AIRPORT, CA, United States (KBLH) 33-37N 114-43W 119M
Oct 16, 2019 - 02:52 PM EDT / 2019.10.16 1852 UTC
Wind: Calm:0
Visibility: 10 mile(s):0
Sky conditions: clear
Temperature: 91.0 F (32.8 C)
Dew Point: 30.9 F (-0.6 C)
Relative Humidity: 11%
Pressure (altimeter): 29.92 in. Hg (1013 hPa)
ob: KBLH 161852Z AUTO 00000KT 10SM CLR 33/M01 A2992 RMK AO2 SLP125 T03281006
cycle: 19

Station Type Date Time Source
KBLH TAF 2019/10/16 18:42 UTC NOAA

TAF KBLH 161740Z 1618/1718 VRB06KT P6SM SKC

Example: see airport list